Accueil
METAR-TAF:

METAR-TAF

Aéroports :

Anatom, Vanuatu

latitude: 20-14-57S, longitude: 169-46-17E, altitude: 2 m

Observation

Le bulletin a été fait il y a 4 heures et 55 minutes, à 09:00 UTC
Vent 10 kt de sud
Température 21°C
Humidité 69%
Pression 1017 hPa
Visibilité 10 km ou plus
Nuages épars à une hauteur de 2000 ft
Nuages fragmentés à une hauteur de 4000 ft

METAR: NVVA 210900Z 19010KT 9999 SCT020 BKN040 21/15 Q1017 RMK NIL

Heure: 00:55 (13:55 UTC)

Prévision

Le bulletin a été fait il y a 3 heures et 55 minutes, à 10:00 UTC
Prévision valable du 21 à 12 UTC au 22 à 12 UTC
Vent 10 kt de sud
Visibilité 10 km ou plus
Nuages épars à une hauteur de 2000 ft
Evoluant progressivement
du 21 à 12 UTC au 21 à 15 UTC
Vent 5 kt de sud

TAF: NVVA 211000Z 2112/2212 19010KT 9999 SCT020 BECMG 2112/2115 19005KT

Observations et prévisions météorologiques de plus de 4000 aéroports (messages METAR et TAF).

Les stations disponibles sont représentées par des disques jaunes et rouges sur la carte.

Passer la souris dessus pour voir le nom de la station.

Cliquer dessus pour voir les observations et prévisions météorologiques.

Pour changer de carte: cliquez sur les boutons verts avec une croix noire pour zoomer, sur le bouton vert avec un tiret pour effectuer un zoom arrière, ou sur les flèches vertes pour les cartes adjacentes.


METAR-TAF: